createdAt,value
2023-05-22T00:10:34.029Z,49.39
2023-05-22T00:20:59.718Z,49.74
2023-05-22T00:31:25.536Z,50.00
2023-05-22T00:41:51.695Z,49.56
2023-05-22T00:52:18.374Z,49.40
2023-05-22T01:02:44.412Z,49.91
2023-05-22T01:13:20.698Z,50.05
2023-05-22T01:24:36.286Z,50.09
2023-05-22T01:35:07.411Z,49.78
2023-05-22T01:45:33.950Z,49.67
2023-05-22T01:56:07.233Z,49.59
2023-05-22T02:17:18.873Z,49.28
2023-05-22T02:27:46.275Z,49.64
2023-05-22T02:38:10.887Z,49.74
2023-05-22T02:48:36.870Z,49.87
2023-05-22T02:59:03.490Z,49.93
2023-05-22T03:09:29.018Z,50.27
2023-05-22T03:19:54.646Z,50.25
2023-05-22T03:30:20.472Z,50.80
2023-05-22T03:40:46.480Z,51.23
2023-05-22T03:51:12.103Z,51.55
2023-05-22T04:01:39.499Z,51.75
2023-05-22T04:12:05.544Z,52.04
2023-05-22T04:22:31.394Z,52.38
2023-05-22T04:32:57.848Z,52.74
2023-05-22T04:43:26.672Z,53.36
2023-05-22T04:53:52.600Z,52.88
2023-05-22T05:04:18.698Z,51.52
2023-05-22T05:14:44.936Z,49.56
2023-05-22T05:25:11.899Z,48.42
2023-05-22T05:35:37.741Z,47.29
2023-05-22T05:46:03.772Z,45.75
2023-05-22T05:56:30.134Z,45.05
2023-05-22T06:06:55.916Z,43.95
2023-05-22T06:17:21.896Z,44.03
2023-05-22T06:27:47.853Z,43.82
2023-05-22T06:38:13.746Z,42.29
2023-05-22T06:48:39.612Z,41.41
2023-05-22T06:59:06.346Z,40.47
2023-05-22T07:09:32.383Z,40.11
2023-05-22T07:19:58.013Z,38.58
2023-05-22T07:30:23.990Z,37.33
2023-05-22T07:40:50.209Z,37.61
2023-05-22T07:51:16.100Z,37.82
2023-05-22T08:01:42.791Z,35.41
2023-05-22T08:12:10.780Z,34.96
2023-05-22T08:22:38.287Z,34.60
2023-05-22T08:33:04.298Z,33.68
2023-05-22T08:43:30.745Z,33.46
2023-05-22T08:53:58.786Z,33.21
2023-05-22T09:04:25.927Z,32.50
2023-05-22T09:14:53.464Z,32.48
2023-05-22T09:25:22.565Z,33.06
2023-05-22T09:35:50.505Z,32.29
2023-05-22T09:46:19.028Z,32.34
2023-05-22T09:57:08.113Z,32.46
2023-05-22T10:07:39.776Z,32.38
2023-05-22T10:18:06.617Z,32.73
2023-05-22T10:28:39.039Z,32.43
2023-05-22T10:39:23.559Z,32.04
2023-05-22T10:49:51.025Z,32.24
2023-05-22T11:00:19.602Z,33.39
2023-05-22T11:10:59.359Z,33.10
2023-05-22T11:21:31.769Z,33.23
2023-05-22T11:31:58.093Z,33.15
2023-05-22T11:42:23.738Z,33.58
2023-05-22T11:52:50.270Z,33.55
2023-05-22T12:03:17.776Z,33.50
2023-05-22T12:13:44.088Z,32.61
2023-05-22T12:24:08.523Z,32.69
2023-05-22T12:34:37.742Z,32.47
2023-05-22T12:45:03.635Z,32.43
2023-05-22T12:55:30.015Z,32.32
2023-05-22T13:05:55.905Z,32.69
2023-05-22T13:16:21.791Z,32.47
2023-05-22T13:26:47.845Z,32.51
2023-05-22T13:37:14.059Z,32.08
2023-05-22T13:47:39.914Z,32.18
2023-05-22T13:58:06.832Z,32.74
2023-05-22T14:08:32.520Z,32.93
2023-05-22T14:18:58.540Z,32.58
2023-05-22T14:29:24.268Z,32.56
2023-05-22T14:39:49.940Z,32.62
2023-05-22T14:50:19.539Z,32.69
2023-05-22T15:00:47.401Z,32.45
2023-05-22T15:11:13.159Z,33.12
2023-05-22T15:21:39.265Z,32.91
2023-05-22T15:32:05.439Z,32.37
2023-05-22T15:42:30.209Z,32.75
2023-05-22T15:52:56.346Z,33.38
2023-05-22T16:03:22.176Z,33.41
2023-05-22T16:13:48.117Z,33.46
2023-05-22T16:24:13.878Z,34.47
2023-05-22T16:34:39.591Z,34.73
2023-05-22T16:45:06.353Z,34.42
2023-05-22T16:55:32.328Z,34.17
2023-05-22T17:05:57.983Z,33.71
2023-05-22T17:16:23.671Z,33.74
2023-05-22T17:26:49.808Z,34.17
2023-05-22T17:37:16.097Z,34.99
2023-05-22T17:47:41.942Z,35.77
2023-05-22T17:58:06.583Z,36.46
2023-05-22T18:08:32.336Z,37.02
2023-05-22T18:18:58.267Z,37.53
2023-05-22T18:29:24.375Z,37.99
2023-05-22T18:39:50.566Z,38.66
2023-05-22T18:50:16.781Z,39.53
2023-05-22T19:00:45.303Z,40.16
2023-05-22T19:11:11.246Z,40.69
2023-05-22T19:21:37.038Z,41.40
2023-05-22T19:32:02.633Z,42.40
2023-05-22T19:42:28.400Z,43.01
2023-05-22T19:52:54.417Z,43.39
2023-05-22T20:03:21.210Z,43.60
2023-05-22T20:13:46.978Z,43.72
2023-05-22T20:24:19.036Z,44.05
2023-05-22T20:34:45.564Z,44.52
2023-05-22T20:45:14.579Z,44.82
2023-05-22T20:55:41.889Z,45.22
2023-05-22T21:06:08.128Z,45.64
2023-05-22T21:16:36.394Z,46.17
2023-05-22T21:27:04.365Z,46.43
2023-05-22T21:37:30.031Z,46.61
2023-05-22T21:47:56.007Z,46.86
2023-05-22T21:58:21.959Z,47.01
2023-05-22T22:08:47.648Z,47.14
2023-05-22T22:19:13.752Z,47.46
2023-05-22T22:29:41.814Z,47.61
2023-05-22T22:40:08.371Z,47.58
2023-05-22T22:50:34.310Z,48.01
2023-05-22T23:01:00.197Z,48.47
2023-05-22T23:11:27.339Z,48.66
2023-05-22T23:21:53.662Z,48.97
2023-05-22T23:32:19.225Z,49.47
2023-05-22T23:42:44.751Z,49.93
2023-05-22T23:53:10.424Z,50.31
